Aviation Digital Data Service (ADDS)

Output produced by METARs form (1600 UTC 05 March 2015)
found at http://aviationweather.gov/adds/metars/
 
KJHW 051516Z 0515/0612 33008KT P6SM FEW025 BKN100 
     FM052000 30010KT P6SM FEW025 SCT250 
     FM060200 29006KT P6SM SCT250 
     FM060600 VRB03KT P6SM FEW250 AMD LTD TO CLD VIS AND WIND